Time;durP1;ratioP1;P1;durP2;ratioP2;P2;SDS_P1;SDS_P2;PMS_P1;PMS_P2;Temp;Humidity;BMP_temperature;BMP_pressure;BME280_temperature;BME280_humidity;BME280_pressure;Samples;Min_cycle;Max_cycle;Signal;HPM_P1;HPM_P2
2022/12/03 00:00:41;;;;;;;;;;;;;;;6.82;nan;102825.63;5072705;28;19916;-35
2022/12/03 00:03:06;;;;;;;;;;;;;;;6.83;nan;102816.63;5072088;28;19939;-36
2022/12/03 00:05:32;;;;;;;;;;;;;;;6.87;nan;102820.59;5068083;28;19916;-35
2022/12/03 00:07:57;;;;;;;;;;;;;;;6.87;nan;102814.44;5070764;28;19977;-35
2022/12/03 00:10:22;;;;;;;;;;;;;;;6.86;nan;102812.78;5068371;28;19934;-35
2022/12/03 00:12:48;;;;;;;;;;;;;;;6.87;nan;102815.28;5071368;28;19916;-35
2022/12/03 00:15:13;;;;;;;;;;;;;;;6.85;nan;102817.28;5071186;28;20384;-35
2022/12/03 00:17:38;;;;;;;;;;;;;;;6.81;nan;102821.28;5073268;28;19952;-35
2022/12/03 00:20:05;;;;;;;;;;;;;;;6.84;nan;102815.63;5075081;28;19928;-35
2022/12/03 00:22:30;;;;;;;;;;;;;;;6.86;nan;102818.13;5072272;28;20010;-35
2022/12/03 00:24:56;;;;;;;;;;;;;;;6.85;nan;102817.28;5075472;28;20015;-35
2022/12/03 00:27:21;;;;;;;;;;;;;;;6.84;nan;102812.97;5074597;28;20023;-35
2022/12/03 00:29:46;;;;;;;;;;;;;;;6.76;nan;102809.47;5073476;28;19961;-36
2022/12/03 00:32:13;;;;;;;;;;;;;;;6.78;nan;102813.63;5074491;28;19924;-35
2022/12/03 00:34:38;;;;;;;;;;;;;;;6.75;nan;102815.81;5073163;28;19920;-35
2022/12/03 00:37:03;;;;;;;;;;;;;;;6.76;nan;102807.66;5074303;28;19929;-35
2022/12/03 00:39:28;;;;;;;;;;;;;;;6.76;nan;102812.97;5069845;28;19920;-35
2022/12/03 00:41:54;;;;;;;;;;;;;;;6.76;nan;102807.66;5075775;28;19920;-35
2022/12/03 00:44:19;;;;;;;;;;;;;;;6.76;nan;102812.97;5081294;28;19995;-35
2022/12/03 00:46:44;;;;;;;;;;;;;;;6.75;nan;102807.81;5069242;28;19920;-36
2022/12/03 00:49:10;;;;;;;;;;;;;;;6.66;nan;102807.88;5069882;28;19995;-35
2022/12/03 00:51:35;;;;;;;;;;;;;;;6.68;nan;102798.88;5075926;28;19989;-35
2022/12/03 00:54:00;;;;;;;;;;;;;;;6.63;nan;102808.19;5074364;28;19957;-37
2022/12/03 00:56:26;;;;;;;;;;;;;;;6.62;nan;102806.53;5073185;28;19997;-35
2022/12/03 00:58:51;;;;;;;;;;;;;;;6.61;nan;102809.34;5074959;28;20360;-35
2022/12/03 01:01:16;;;;;;;;;;;;;;;6.61;nan;102809.34;5073491;28;19916;-35
2022/12/03 01:03:42;;;;;;;;;;;;;;;6.66;nan;102812.38;5074219;28;19966;-35
2022/12/03 01:06:07;;;;;;;;;;;;;;;6.69;nan;102809.34;5075021;28;20016;-35
2022/12/03 01:08:32;;;;;;;;;;;;;;;6.72;nan;102817.00;5073114;28;19948;-36
2022/12/03 01:10:58;;;;;;;;;;;;;;;6.72;nan;102809.00;5073823;28;19916;-35
2022/12/03 01:13:23;;;;;;;;;;;;;;;6.67;nan;102819.34;5075937;28;19921;-35
2022/12/03 01:15:48;;;;;;;;;;;;;;;6.61;nan;102823.50;5076791;28;20003;-35
2022/12/03 01:18:14;;;;;;;;;;;;;;;6.57;nan;102816.88;5077056;28;20022;-35
2022/12/03 01:20:39;;;;;;;;;;;;;;;6.56;nan;102817.88;5072619;28;19916;-35
2022/12/03 01:23:04;;;;;;;;;;;;;;;6.56;nan;102815.22;5079142;28;19964;-36
2022/12/03 01:25:30;;;;;;;;;;;;;;;6.53;nan;102812.88;5072878;28;19928;-35
2022/12/03 01:27:55;;;;;;;;;;;;;;;6.54;nan;102811.06;5073011;28;20350;-35
2022/12/03 01:30:21;;;;;;;;;;;;;;;6.51;nan;102803.41;5075064;28;19924;-35
2022/12/03 01:32:46;;;;;;;;;;;;;;;6.52;nan;102810.41;5072677;28;19920;-35
2022/12/03 01:35:11;;;;;;;;;;;;;;;6.50;nan;102801.75;5072111;28;19922;-35
2022/12/03 01:37:37;;;;;;;;;;;;;;;6.49;nan;102805.41;5075586;28;19993;-35
2022/12/03 01:40:02;;;;;;;;;;;;;;;6.50;nan;102804.41;5073850;28;19912;-36
2022/12/03 01:42:33;;;;;;;;;;;;;;;6.52;nan;102810.41;5075941;28;19920;-36
2022/12/03 01:44:59;;;;;;;;;;;;;;;6.54;nan;102811.06;5076295;28;20307;-35
2022/12/03 01:47:29;;;;;;;;;;;;;;;6.55;nan;102805.56;5073382;28;20084;-35
2022/12/03 01:49:58;;;;;;;;;;;;;;;6.57;nan;102800.88;5074155;28;19927;-35
2022/12/03 01:52:26;;;;;;;;;;;;;;;6.59;nan;102800.72;5071963;28;19921;-35
2022/12/03 01:54:56;;;;;;;;;;;;;;;6.53;nan;102801.41;5077077;28;19922;-35
2022/12/03 01:57:24;;;;;;;;;;;;;;;6.54;nan;102801.25;5073880;28;20017;-35
2022/12/03 01:59:50;;;;;;;;;;;;;;;6.54;nan;102803.91;5075712;28;19920;-35
2022/12/03 02:02:21;;;;;;;;;;;;;;;6.50;nan;102801.75;5073626;28;19916;-37
2022/12/03 02:04:47;;;;;;;;;;;;;;;6.53;nan;102798.75;5075981;28;19938;-36
2022/12/03 02:07:31;;;;;;;;;;;;;;;6.56;nan;102803.72;5073962;28;20028;-35
2022/12/03 02:09:57;;;;;;;;;;;;;;;6.61;nan;102798.69;5072702;28;19999;-35
2022/12/03 02:12:26;;;;;;;;;;;;;;;6.60;nan;102797.03;5070839;28;20416;-36
2022/12/03 02:14:52;;;;;;;;;;;;;;;6.59;nan;102798.06;5074865;28;19924;-35
2022/12/03 02:17:17;;;;;;;;;;;;;;;6.58;nan;102796.38;5072022;28;20019;-35
2022/12/03 02:19:42;;;;;;;;;;;;;;;6.49;nan;102805.41;5073441;28;20367;-35
2022/12/03 02:22:20;;;;;;;;;;;;;;;6.50;nan;102796.44;5075959;28;19923;-36
2022/12/03 02:24:45;;;;;;;;;;;;;;;6.53;nan;102794.25;5072011;28;19930;-35
2022/12/03 02:27:11;;;;;;;;;;;;;;;6.54;nan;102787.09;5069774;28;19928;-35
2022/12/03 02:29:36;;;;;;;;;;;;;;;6.55;nan;102788.75;5073147;28;20375;-35
2022/12/03 02:32:01;;;;;;;;;;;;;;;6.56;nan;102790.41;5076891;28;20395;-36
2022/12/03 02:34:34;;;;;;;;;;;;;;;6.61;nan;102793.38;5070724;28;19920;-35
2022/12/03 02:37:00;;;;;;;;;;;;;;;6.63;nan;102794.03;5079583;28;19921;-35
2022/12/03 02:39:25;;;;;;;;;;;;;;;6.62;nan;102789.72;5074636;28;20459;-35
2022/12/03 02:44:35;;;;;;;;;;;;;;;6.57;nan;102787.56;5073319;28;20337;-35
2022/12/03 02:47:01;;;;;;;;;;;;;;;6.56;nan;102787.75;5071634;28;19920;-35
2022/12/03 02:49:26;;;;;;;;;;;;;;;6.54;nan;102789.75;5068659;28;19928;-35
2022/12/03 02:51:51;;;;;;;;;;;;;;;6.56;nan;102788.56;5072707;28;19928;-35
2022/12/03 02:54:17;;;;;;;;;;;;;;;6.54;nan;102787.09;5071164;28;20257;-36
2022/12/03 02:56:42;;;;;;;;;;;;;;;6.53;nan;102790.75;5076254;28;19924;-35
2022/12/03 02:59:07;;;;;;;;;;;;;;;6.53;nan;102785.44;5069932;28;19916;-35
2022/12/03 03:01:33;;;;;;;;;;;;;;;6.54;nan;102784.44;5075554;28;19923;-35
2022/12/03 03:03:59;;;;;;;;;;;;;;;6.55;nan;102783.41;5070188;28;19917;-36
2022/12/03 03:06:25;;;;;;;;;;;;;;;6.53;nan;102780.94;5070943;28;20206;-35
2022/12/03 03:08:50;;;;;;;;;;;;;;;6.43;nan;102774.97;5069868;28;20009;-35
2022/12/03 03:11:16;;;;;;;;;;;;;;;6.39;nan;102783.47;5075372;28;19920;-35
2022/12/03 03:13:41;;;;;;;;;;;;;;;6.38;nan;102776.47;5069398;28;19921;-35
2022/12/03 03:16:07;;;;;;;;;;;;;;;6.43;nan;102782.13;5069875;28;19924;-35
2022/12/03 03:18:32;;;;;;;;;;;;;;;6.43;nan;102774.97;5067278;28;20413;-36
2022/12/03 03:20:58;;;;;;;;;;;;;;;6.45;nan;102772.13;5066123;28;19924;-35
2022/12/03 03:23:23;;;;;;;;;;;;;;;6.46;nan;102765.78;5068659;28;19920;-37
2022/12/03 03:25:52;;;;;;;;;;;;;;;6.48;nan;102771.81;5068374;28;20069;-35
2022/12/03 03:28:18;;;;;;;;;;;;;;;6.48;nan;102761.16;5066527;28;19924;-35
2022/12/03 03:30:44;;;;;;;;;;;;;;;6.51;nan;102760.81;5070070;28;19935;-35
2022/12/03 03:33:10;;;;;;;;;;;;;;;6.54;nan;102757.78;5072792;28;20007;-35
2022/12/03 03:35:36;;;;;;;;;;;;;;;6.51;nan;102756.31;5070836;28;19916;-36
2022/12/03 03:38:02;;;;;;;;;;;;;;;6.40;nan;102753.19;5072948;28;20257;-37
2022/12/03 03:40:27;;;;;;;;;;;;;;;6.35;nan;102751.03;5070805;28;19920;-36
2022/12/03 03:42:54;;;;;;;;;;;;;;;6.27;nan;102751.03;5070234;28;19916;-35
2022/12/03 03:45:19;;;;;;;;;;;;;;;6.29;nan;102741.91;5071320;28;19924;-36
2022/12/03 03:47:45;;;;;;;;;;;;;;;6.32;nan;102744.22;5071492;28;20008;-35
2022/12/03 03:50:11;;;;;;;;;;;;;;;6.36;nan;102736.72;5072074;28;19949;-35
2022/12/03 03:52:37;;;;;;;;;;;;;;;6.39;nan;102743.53;5074423;28;20011;-35
2022/12/03 03:55:03;;;;;;;;;;;;;;;6.44;nan;102735.84;5070556;28;20493;-35
2022/12/03 03:57:28;;;;;;;;;;;;;;;6.43;nan;102732.34;5076565;28;19932;-34
2022/12/03 03:59:53;;;;;;;;;;;;;;;6.45;nan;102724.19;5077801;28;19916;-35
2022/12/03 04:02:20;;;;;;;;;;;;;;;6.35;nan;102725.25;5076224;28;20371;-36
2022/12/03 04:04:45;;;;;;;;;;;;;;;6.36;nan;102721.56;5073749;28;19925;-35
2022/12/03 04:07:11;;;;;;;;;;;;;;;6.39;nan;102719.56;5072903;28;19958;-35
2022/12/03 04:09:36;;;;;;;;;;;;;;;6.42;nan;102721.88;5074362;28;19981;-35
2022/12/03 04:14:45;;;;;;;;;;;;;;;6.46;nan;102716.03;5076505;28;19955;-35
2022/12/03 04:17:11;;;;;;;;;;;;;;;6.47;nan;102723.03;5073739;28;19975;-35
2022/12/03 04:19:36;;;;;;;;;;;;;;;6.47;nan;102712.41;5075279;28;19923;-36
2022/12/03 04:24:45;;;;;;;;;;;;;;;6.46;nan;102710.69;5076143;28;19973;-35
2022/12/03 04:29:57;;;;;;;;;;;;;;;6.50;nan;102721.88;5079173;28;20018;-35
2022/12/03 04:37:51;;;;;;;;;;;;;;;6.44;nan;102717.22;5073090;28;20031;-33
2022/12/03 04:43:00;;;;;;;;;;;;;;;6.43;nan;102718.22;5072362;28;19923;-33
2022/12/03 04:45:26;;;;;;;;;;;;;;;6.42;nan;102712.06;5073736;28;19924;-33
2022/12/03 04:47:51;;;;;;;;;;;;;;;6.42;nan;102714.72;5074671;28;19931;-33
2022/12/03 04:50:16;;;;;;;;;;;;;;;6.41;nan;102722.88;5073100;28;20331;-33
2022/12/03 04:52:42;;;;;;;;;;;;;;;6.34;nan;102718.25;5074044;28;19917;-33
2022/12/03 04:55:07;;;;;;;;;;;;;;;6.29;nan;102720.63;5072071;28;19926;-33
2022/12/03 04:57:33;;;;;;;;;;;;;;;6.28;nan;102718.94;5071805;28;19920;-33
2022/12/03 04:59:58;;;;;;;;;;;;;;;6.18;nan;102712.97;5076388;28;20499;-33
2022/12/03 05:02:23;;;;;;;;;;;;;;;6.20;nan;102723.47;5074163;28;20579;-33
2022/12/03 05:04:49;;;;;;;;;;;;;;;6.20;nan;102716.31;5071708;28;19924;-33
2022/12/03 05:07:14;;;;;;;;;;;;;;;6.22;nan;102724.13;5074016;28;20390;-33
2022/12/03 05:09:39;;;;;;;;;;;;;;;6.21;nan;102720.63;5070123;28;19926;-33
2022/12/03 05:12:05;;;;;;;;;;;;;;;6.20;nan;102726.94;5072967;28;20309;-33
2022/12/03 05:14:30;;;;;;;;;;;;;;;6.17;nan;102718.47;5074371;28;19981;-33
2022/12/03 05:16:55;;;;;;;;;;;;;;;6.20;nan;102718.13;5079200;28;20346;-33
2022/12/03 05:20:40;;;;;;;;;;;;;;;6.21;nan;102717.97;5071895;28;19941;-33
2022/12/03 05:22:06;;;;;;;;;;;;;;;6.21;nan;102720.63;5071806;28;20270;-33
2022/12/03 05:24:31;;;;;;;;;;;;;;;6.22;nan;102708.97;5072362;28;20007;-33
2022/12/03 05:26:56;;;;;;;;;;;;;;;6.21;nan;102717.97;5072774;28;20308;-33
2022/12/03 05:29:22;;;;;;;;;;;;;;;6.24;nan;102711.47;5075366;28;20366;-33
2022/12/03 05:31:47;;;;;;;;;;;;;;;6.24;nan;102709.63;5073381;28;19936;-32
2022/12/03 05:34:12;;;;;;;;;;;;;;;6.27;nan;102709.28;5075884;28;20002;-33
2022/12/03 05:36:37;;;;;;;;;;;;;;;6.30;nan;102705.47;5079623;28;19916;-33
2022/12/03 05:39:03;;;;;;;;;;;;;;;6.34;nan;102701.44;5076749;28;19935;-33
2022/12/03 05:44:12;;;;;;;;;;;;;;;6.29;nan;102701.97;5075661;28;20023;-33
2022/12/03 05:46:37;;;;;;;;;;;;;;;6.31;nan;102707.97;5073746;28;20007;-33
2022/12/03 05:49:02;;;;;;;;;;;;;;;6.34;nan;102698.78;5080511;28;19938;-33
2022/12/03 05:51:28;;;;;;;;;;;;;;;6.33;nan;102703.28;5085170;28;20010;-33
2022/12/03 05:53:53;;;;;;;;;;;;;;;6.33;nan;102700.63;5080104;28;20005;-33
2022/12/03 05:56:18;;;;;;;;;;;;;;;6.33;nan;102699.78;5070448;28;20031;-33
2022/12/03 05:58:44;;;;;;;;;;;;;;;6.31;nan;102693.81;5069703;28;19928;-33
2022/12/03 06:01:09;;;;;;;;;;;;;;;6.27;nan;102692.47;5078016;28;19942;-33
2022/12/03 06:03:34;;;;;;;;;;;;;;;6.25;nan;102690.00;5075532;28;20072;-33
2022/12/03 06:06:00;;;;;;;;;;;;;;;6.27;nan;102685.31;5077775;28;19924;-33
2022/12/03 06:08:26;;;;;;;;;;;;;;;6.30;nan;102685.00;5079556;28;20186;-33
2022/12/03 06:10:51;;;;;;;;;;;;;;;6.34;nan;102686.31;5069642;28;19916;-33
2022/12/03 06:13:17;;;;;;;;;;;;;;;6.39;nan;102676.97;5073063;28;19924;-33
2022/12/03 06:15:42;;;;;;;;;;;;;;;6.35;nan;102679.97;5078713;28;20051;-33
2022/12/03 06:18:07;;;;;;;;;;;;;;;6.32;nan;102683.00;5076719;28;19927;-33
2022/12/03 06:20:33;;;;;;;;;;;;;;;6.32;nan;102677.66;5076096;28;19958;-33
2022/12/03 06:22:58;;;;;;;;;;;;;;;6.29;nan;102679.84;5069581;28;20149;-33
2022/12/03 06:25:23;;;;;;;;;;;;;;;6.29;nan;102678.03;5075894;28;19931;-33
2022/12/03 06:27:49;;;;;;;;;;;;;;;6.31;nan;102676.00;5076921;28;20362;-33
2022/12/03 06:30:14;;;;;;;;;;;;;;;6.35;nan;102671.16;5074729;28;20142;-33
2022/12/03 06:32:40;;;;;;;;;;;;;;;6.35;nan;102672.00;5073121;28;19923;-33
2022/12/03 06:35:05;;;;;;;;;;;;;;;6.35;nan;102679.16;5071793;28;19986;-33
2022/12/03 06:37:31;;;;;;;;;;;;;;;6.37;nan;102679.81;5074293;28;19919;-33
2022/12/03 06:39:58;;;;;;;;;;;;;;;6.32;nan;102688.31;5070938;28;20415;-33
2022/12/03 06:42:23;;;;;;;;;;;;;;;6.33;nan;102682.00;5073036;28;20183;-33
2022/12/03 06:44:48;;;;;;;;;;;;;;;6.36;nan;102678.97;5073625;28;19986;-33
2022/12/03 06:47:14;;;;;;;;;;;;;;;6.37;nan;102682.47;5071777;28;20310;-33
2022/12/03 06:49:39;;;;;;;;;;;;;;;6.35;nan;102681.81;5070630;28;19921;-33
2022/12/03 06:52:04;;;;;;;;;;;;;;;6.35;nan;102681.81;5074748;28;20405;-32
2022/12/03 06:54:30;;;;;;;;;;;;;;;6.38;nan;102688.63;5077352;28;19924;-33
2022/12/03 06:56:55;;;;;;;;;;;;;;;6.27;nan;102684.50;5070879;28;20386;-33
2022/12/03 06:59:21;;;;;;;;;;;;;;;6.27;nan;102687.16;5074648;28;19947;-33
2022/12/03 07:01:46;;;;;;;;;;;;;;;6.25;nan;102678.50;5075460;28;19920;-33
2022/12/03 07:04:11;;;;;;;;;;;;;;;6.23;nan;102680.53;5069376;28;19920;-33
2022/12/03 07:06:37;;;;;;;;;;;;;;;6.26;nan;102681.00;5068843;28;19917;-33
2022/12/03 07:09:02;;;;;;;;;;;;;;;6.27;nan;102682.66;5072439;28;19916;-33
2022/12/03 07:11:30;;;;;;;;;;;;;;;6.27;nan;102676.50;5069637;28;19917;-33
2022/12/03 07:13:57;;;;;;;;;;;;;;;6.31;nan;102677.84;5067595;28;20042;-33
2022/12/03 07:16:22;;;;;;;;;;;;;;;6.36;nan;102668.31;5073403;28;19916;-33
2022/12/03 07:18:48;;;;;;;;;;;;;;;6.42;nan;102671.28;5074933;28;20385;-33
2022/12/03 07:21:13;;;;;;;;;;;;;;;6.44;nan;102671.94;5074590;28;20405;-33
2022/12/03 07:23:39;;;;;;;;;;;;;;;6.42;nan;102672.13;5079217;28;19916;-33
2022/12/03 07:26:04;;;;;;;;;;;;;;;6.42;nan;102665.97;5075719;28;19931;-33
2022/12/03 07:28:29;;;;;;;;;;;;;;;6.40;nan;102665.31;5072482;28;19916;-33
2022/12/03 07:30:54;;;;;;;;;;;;;;;6.39;nan;102671.63;5075503;28;20062;-33
2022/12/03 07:33:20;;;;;;;;;;;;;;;6.39;nan;102666.31;5077375;28;20066;-33
2022/12/03 07:35:45;;;;;;;;;;;;;;;6.35;nan;102669.34;5074816;28;20029;-33
2022/12/03 07:38:10;;;;;;;;;;;;;;;6.38;nan;102669.97;5073667;28;19920;-33
2022/12/03 07:40:36;;;;;;;;;;;;;;;6.39;nan;102671.63;5074418;28;19930;-33
2022/12/03 07:43:01;;;;;;;;;;;;;;;6.43;nan;102672.94;5078257;28;20009;-33
2022/12/03 07:45:26;;;;;;;;;;;;;;;6.42;nan;102671.28;5075514;28;20282;-33
2022/12/03 07:47:52;;;;;;;;;;;;;;;6.31;nan;102676.00;5071784;28;20554;-33
2022/12/03 07:50:17;;;;;;;;;;;;;;;6.33;nan;102665.19;5076520;28;19916;-33
2022/12/03 07:52:42;;;;;;;;;;;;;;;6.38;nan;102677.97;5072276;28;19923;-33
2022/12/03 07:55:09;;;;;;;;;;;;;;;6.44;nan;102677.28;5071832;28;19924;-33
2022/12/03 07:57:34;;;;;;;;;;;;;;;6.49;nan;102675.75;5071876;28;20003;-33
2022/12/03 07:59:59;;;;;;;;;;;;;;;6.54;nan;102675.22;5076058;28;19920;-33
2022/12/03 08:02:24;;;;;;;;;;;;;;;6.55;nan;102677.72;5070378;28;19946;-33
2022/12/03 08:04:50;;;;;;;;;;;;;;;6.51;nan;102681.75;5067988;28;20012;-33
2022/12/03 08:07:15;;;;;;;;;;;;;;;6.45;nan;102678.94;5076764;28;20010;-33
2022/12/03 08:09:41;;;;;;;;;;;;;;;6.39;nan;102675.13;5070646;28;19934;-33
2022/12/03 08:12:13;;;;;;;;;;;;;;;6.31;nan;102675.19;5069979;28;19936;-33
2022/12/03 08:14:39;;;;;;;;;;;;;;;6.20;nan;102676.38;5066495;28;19925;-33
2022/12/03 08:17:09;;;;;;;;;;;;;;;6.18;nan;102670.41;5068213;28;20370;-33
2022/12/03 08:19:35;;;;;;;;;;;;;;;6.20;nan;102664.91;5067214;28;20068;-33
2022/12/03 08:22:00;;;;;;;;;;;;;;;6.20;nan;102672.88;5073165;28;19920;-33
2022/12/03 08:24:25;;;;;;;;;;;;;;;6.23;nan;102676.03;5070041;28;19920;-33
2022/12/03 08:26:51;;;;;;;;;;;;;;;6.27;nan;102672.00;5069033;28;19921;-33
2022/12/03 08:29:18;;;;;;;;;;;;;;;6.27;nan;102672.00;5069422;28;19920;-33
2022/12/03 08:31:47;;;;;;;;;;;;;;;6.30;nan;102677.00;5068304;28;19916;-33
2022/12/03 08:34:17;;;;;;;;;;;;;;;6.33;nan;102663.34;5075115;28;19942;-33
2022/12/03 08:36:43;;;;;;;;;;;;;;;6.34;nan;102665.00;5068412;28;19920;-33
2022/12/03 08:39:27;;;;;;;;;;;;;;;6.36;nan;102668.31;5070846;28;19931;-33
2022/12/03 08:44:39;;;;;;;;;;;;;;;6.41;nan;102675.78;5068796;28;20330;-33
2022/12/03 08:47:07;;;;;;;;;;;;;;;6.44;nan;102670.09;5079508;28;19973;-33
2022/12/03 08:49:33;;;;;;;;;;;;;;;6.44;nan;102666.63;5070567;28;20295;-33
2022/12/03 08:51:59;;;;;;;;;;;;;;;6.44;nan;102666.63;5077641;28;19916;-33
2022/12/03 08:54:24;;;;;;;;;;;;;;;6.44;nan;102664.78;5071390;28;19920;-33
2022/12/03 08:56:50;;;;;;;;;;;;;;;6.46;nan;102670.75;5080151;28;19916;-33
2022/12/03 08:59:21;;;;;;;;;;;;;;;6.52;nan;102670.09;5079990;28;19920;-33
2022/12/03 09:01:47;;;;;;;;;;;;;;;6.55;nan;102668.91;5081874;28;20402;-33
2022/12/03 09:04:20;;;;;;;;;;;;;;;6.58;nan;102665.88;5068391;28;19921;-33
2022/12/03 09:06:45;;;;;;;;;;;;;;;6.54;nan;102669.91;5067968;28;20306;-32
2022/12/03 09:09:10;;;;;;;;;;;;;;;6.46;nan;102668.09;5071752;28;20062;-33
2022/12/03 09:11:36;;;;;;;;;;;;;;;6.48;nan;102665.28;5070515;28;19916;-38
2022/12/03 09:14:01;;;;;;;;;;;;;;;6.50;nan;102663.28;5070949;28;20009;-33
2022/12/03 09:16:27;;;;;;;;;;;;;;;6.54;nan;102659.25;5071844;28;19924;-33
2022/12/03 09:18:52;;;;;;;;;;;;;;;6.53;nan;102657.59;5071064;28;20388;-33
2022/12/03 09:21:17;;;;;;;;;;;;;;;6.53;nan;102660.25;5075683;28;19923;-33
2022/12/03 09:23:43;;;;;;;;;;;;;;;6.56;nan;102662.56;5073328;28;20521;-33
2022/12/03 09:26:08;;;;;;;;;;;;;;;6.58;nan;102658.72;5071130;28;19925;-33
2022/12/03 09:28:33;;;;;;;;;;;;;;;6.61;nan;102662.88;5064524;28;20113;-33
2022/12/03 09:30:58;;;;;;;;;;;;;;;6.62;nan;102657.38;5069186;28;20003;-33
2022/12/03 09:33:24;;;;;;;;;;;;;;;6.64;nan;102666.03;5067323;28;19961;-33
2022/12/03 09:35:49;;;;;;;;;;;;;;;6.62;nan;102660.03;5074395;28;20375;-33
2022/12/03 09:38:15;;;;;;;;;;;;;;;6.60;nan;102664.69;5072512;28;20276;-38
2022/12/03 09:40:41;;;;;;;;;;;;;;;6.57;nan;102661.56;5071383;28;20434;-33
2022/12/03 09:43:06;;;;;;;;;;;;;;;6.62;nan;102656.53;5072682;28;19920;-33
2022/12/03 09:45:31;;;;;;;;;;;;;;;6.62;nan;102654.69;5062976;28;20019;-33
2022/12/03 09:47:58;;;;;;;;;;;;;;;6.68;nan;102653.19;5070368;28;20949;-33
2022/12/03 09:50:25;;;;;;;;;;;;;;;6.71;nan;102655.50;5070644;28;19946;-33
2022/12/03 09:52:53;;;;;;;;;;;;;;;6.71;nan;102650.16;5074314;28;19920;-33
2022/12/03 09:55:23;;;;;;;;;;;;;;;6.72;nan;102649.16;5072595;28;20067;-33
2022/12/03 09:57:49;;;;;;;;;;;;;;;6.77;nan;102638.78;5074114;28;20374;-33
2022/12/03 10:00:17;;;;;;;;;;;;;;;6.85;nan;102640.59;5074257;28;19963;-33
2022/12/03 10:02:43;;;;;;;;;;;;;;;6.90;nan;102636.38;5075347;28;20482;-33
2022/12/03 10:05:08;;;;;;;;;;;;;;;6.94;nan;102639.50;5071196;28;19920;-33
2022/12/03 10:07:34;;;;;;;;;;;;;;;6.99;nan;102637.13;5071031;28;19923;-33
2022/12/03 10:09:59;;;;;;;;;;;;;;;7.04;nan;102636.63;5066216;28;20026;-33
2022/12/03 10:12:24;;;;;;;;;;;;;;;7.08;nan;102629.91;5068006;28;19924;-33
2022/12/03 10:14:50;;;;;;;;;;;;;;;7.10;nan;102628.72;5070078;28;19916;-33
2022/12/03 10:17:16;;;;;;;;;;;;;;;7.14;nan;102623.88;5077194;28;20018;-33
2022/12/03 10:19:41;;;;;;;;;;;;;;;7.17;nan;102627.00;5066623;28;19920;-33
2022/12/03 10:22:07;;;;;;;;;;;;;;;7.23;nan;102615.63;5072489;28;19931;-33
2022/12/03 10:24:33;;;;;;;;;;;;;;;7.31;nan;102614.72;5073496;28;19920;-33
2022/12/03 10:27:00;;;;;;;;;;;;;;;7.40;nan;102613.66;5076771;28;19916;-33
2022/12/03 10:29:27;;;;;;;;;;;;;;;7.45;nan;102605.91;5064801;28;19960;-33
2022/12/03 10:31:55;;;;;;;;;;;;;;;7.46;nan;102612.91;5072941;22;20439;-34
2022/12/03 10:34:24;;;;;;;;;;;;;;;7.40;nan;102612.81;5055049;28;20426;-38
2022/12/03 10:37:07;;;;;;;;;;;;;;;7.36;nan;102607.03;5061217;28;20489;-37
2022/12/03 10:39:50;;;;;;;;;;;;;;;7.37;nan;102608.69;5061160;28;19916;-37
2022/12/03 10:42:17;;;;;;;;;;;;;;;7.33;nan;102595.88;5054619;28;20053;-36
2022/12/03 10:44:43;;;;;;;;;;;;;;;7.34;nan;102602.84;5063081;28;20139;-35
2022/12/03 10:47:12;;;;;;;;;;;;;;;7.29;nan;102600.75;5055125;28;19924;-38
2022/12/03 10:49:38;;;;;;;;;;;;;;;7.24;nan;102597.78;5059786;28;19924;-35
2022/12/03 10:52:05;;;;;;;;;;;;;;;7.20;nan;102589.34;5054162;28;20604;-37
2022/12/03 10:54:32;;;;;;;;;;;;;;;7.14;nan;102595.38;5060577;28;19975;-36
2022/12/03 10:56:58;;;;;;;;;;;;;;;7.11;nan;102594.91;5060503;28;20022;-38
2022/12/03 10:59:25;;;;;;;;;;;;;;;7.08;nan;102597.94;5058932;28;19921;-38
2022/12/03 11:01:50;;;;;;;;;;;;;;;7.06;nan;102600.78;5056698;28;19942;-37
2022/12/03 11:04:28;;;;;;;;;;;;;;;7.01;nan;102595.19;5060731;28;19920;-38
2022/12/03 11:06:54;;;;;;;;;;;;;;;6.96;nan;102597.53;5062362;28;21273;-38
2022/12/03 11:09:21;;;;;;;;;;;;;;;6.96;nan;102589.53;5062635;28;20441;-35
2022/12/03 11:11:46;;;;;;;;;;;;;;;6.97;nan;102586.69;5059911;28;21809;-38
2022/12/03 11:14:12;;;;;;;;;;;;;;;6.96;nan;102587.69;5063071;28;20025;-34
2022/12/03 11:16:40;;;;;;;;;;;;;;;6.98;nan;102587.50;5060007;28;19920;-37
2022/12/03 11:19:11;;;;;;;;;;;;;;;6.95;nan;102578.03;5055653;28;20309;-37
2022/12/03 11:21:55;;;;;;;;;;;;;;;6.91;nan;102579.41;5057316;28;19943;-35
2022/12/03 11:24:21;;;;;;;;;;;;;;;6.86;nan;102579.13;5056341;28;19927;-38
2022/12/03 11:26:49;;;;;;;;;;;;;;;6.84;nan;102575.81;5054387;28;20399;-38
2022/12/03 11:29:14;;;;;;;;;;;;;;;6.87;nan;102575.47;5060908;28;19946;-35
2022/12/03 11:31:41;;;;;;;;;;;;;;;6.89;nan;102569.94;5058650;28;19924;-35
2022/12/03 11:34:22;;;;;;;;;;;;;;;6.88;nan;102571.78;5059353;28;19924;-38
2022/12/03 11:37:19;;;;;;;;;;;;;;;6.91;nan;102562.59;5056571;28;19917;-37
2022/12/03 11:39:50;;;;;;;;;;;;;;;6.97;nan;102557.38;5012127;28;19917;-37
2022/12/03 11:42:25;;;;;;;;;;;;;;;7.00;nan;102552.69;5065183;28;20153;-40
2022/12/03 11:45:05;;;;;;;;;;;;;;;7.04;nan;102546.84;5060624;28;19920;-39
2022/12/03 11:47:32;;;;;;;;;;;;;;;7.01;nan;102543.72;5060203;28;19945;-37
2022/12/03 11:49:57;;;;;;;;;;;;;;;7.00;nan;102547.34;5060014;28;19961;-37
2022/12/03 11:52:28;;;;;;;;;;;;;;;7.04;nan;102544.16;5058919;28;20342;-38
2022/12/03 11:54:56;;;;;;;;;;;;;;;7.05;nan;102545.00;5056312;28;19963;-40
2022/12/03 11:57:26;;;;;;;;;;;;;;;7.05;nan;102540.50;5057035;28;19924;-39
2022/12/03 12:00:04;;;;;;;;;;;;;;;7.04;nan;102538.00;5058984;28;19970;-37
2022/12/03 12:02:30;;;;;;;;;;;;;;;6.97;nan;102538.72;5053378;28;21192;-40
2022/12/03 12:04:55;;;;;;;;;;;;;;;7.01;nan;102538.38;5057977;28;19956;-40
2022/12/03 12:07:34;;;;;;;;;;;;;;;7.01;nan;102533.06;5059811;28;20351;-36
2022/12/03 12:09:59;;;;;;;;;;;;;;;6.97;nan;102544.03;5054298;28;19924;-37
2022/12/03 12:12:29;;;;;;;;;;;;;;;6.98;nan;102543.03;5058264;28;19920;-40
2022/12/03 12:14:55;;;;;;;;;;;;;;;6.99;nan;102530.53;5056649;28;20439;-40
2022/12/03 12:17:30;;;;;;;;;;;;;;;7.01;nan;102527.72;5056111;28;20255;-40
2022/12/03 12:20:14;;;;;;;;;;;;;;;6.98;nan;102524.38;5056709;28;20584;-40
2022/12/03 12:22:39;;;;;;;;;;;;;;;7.01;nan;102527.72;5065006;28;20345;-40
2022/12/03 12:25:25;;;;;;;;;;;;;;;7.04;nan;102527.34;5057346;28;19950;-40
2022/12/03 12:27:52;;;;;;;;;;;;;;;7.10;nan;102529.28;5060676;28;20018;-36
2022/12/03 12:30:19;;;;;;;;;;;;;;;7.13;nan;102520.91;5059080;28;20446;-37
2022/12/03 12:32:49;;;;;;;;;;;;;;;7.16;nan;102523.22;5062883;28;20454;-36
2022/12/03 12:35:16;;;;;;;;;;;;;;;7.15;nan;102525.06;5058404;28;19925;-42
2022/12/03 12:37:49;;;;;;;;;;;;;;;7.16;nan;102516.03;5063510;28;20380;-40
2022/12/03 12:40:16;;;;;;;;;;;;;;;7.09;nan;102512.47;5058652;28;19927;-38
2022/12/03 12:42:47;;;;;;;;;;;;;;;7.02;nan;102518.72;5059816;28;19917;-40
2022/12/03 12:45:14;;;;;;;;;;;;;;;7.01;nan;102509.88;5059989;28;20333;-39
2022/12/03 12:47:46;;;;;;;;;;;;;;;7.01;nan;102499.22;5060645;28;20326;-42
2022/12/03 12:50:12;;;;;;;;;;;;;;;6.98;nan;102503.06;5059104;28;20547;-39
2022/12/03 12:52:47;;;;;;;;;;;;;;;7.00;nan;102494.06;5063908;28;19936;-41
2022/12/03 12:55:14;;;;;;;;;;;;;;;6.93;nan;102510.78;5060240;28;20006;-39
2022/12/03 12:57:40;;;;;;;;;;;;;;;6.95;nan;102507.94;5060974;28;19932;-40
2022/12/03 13:00:05;;;;;;;;;;;;;;;6.94;nan;102506.28;5062528;28;19927;-41
2022/12/03 13:02:33;;;;;;;;;;;;;;;6.95;nan;102511.41;5068022;28;19956;-41
2022/12/03 13:05:01;;;;;;;;;;;;;;;6.96;nan;102499.75;5070122;28;19925;-41
2022/12/03 13:07:26;;;;;;;;;;;;;;;6.98;nan;102507.56;5066066;28;20379;-40
2022/12/03 13:09:54;;;;;;;;;;;;;;;6.96;nan;102499.75;5068663;28;19926;-39
2022/12/03 13:12:20;;;;;;;;;;;;;;;6.96;nan;102497.09;5065866;28;20327;-40
2022/12/03 13:14:46;;;;;;;;;;;;;;;6.97;nan;102501.41;5064851;28;19917;-40
2022/12/03 13:17:13;;;;;;;;;;;;;;;6.99;nan;102503.88;5059296;28;19920;-41
2022/12/03 13:19:39;;;;;;;;;;;;;;;7.03;nan;102499.03;5067656;28;19917;-39
2022/12/03 13:22:21;;;;;;;;;;;;;;;7.04;nan;102495.38;5070832;28;20272;-38
2022/12/03 13:24:49;;;;;;;;;;;;;;;7.01;nan;102495.75;5070834;28;19973;-42
2022/12/03 13:27:24;;;;;;;;;;;;;;;7.03;nan;102501.72;5064375;28;19917;-41
2022/12/03 13:29:59;;;;;;;;;;;;;;;7.03;nan;102496.38;5066840;28;20096;-37